Seabourn Quest — C6YZ5 — position and weather

sailwx.info

Track history (hours):
 
Tides and Currents Weather Stations Pressure Air Temp Water Temp Dewpoint Dewpoint Depression Visibility Wind Speed Wind Dir Waves Ship Positions

Seabourn Quest

Last reported at 2017-Mar-28 18:34 UTC. Time now 2017-Mar-30 22:52 UTC.
Position N 18°30' W 064°49'.

Length 198 m.

Type: Ship. MMSI: 311038900.

Date/timePositionNaut miles runAvg speedWind from/ knotsBaromVisibWave heightAir tempDewpointWater temp
2017-Mar-28 18:34N 18°30' W 064°49'5 2.1
2017-Mar-28 16:05N 18°26' W 064°45'3 3.1
2017-Mar-28 15:00N 18°24' W 064°42'3 2.3 170 / 51008.310.8 28.6 26.7
2017-Mar-28 13:29N 18°26' W 064°45'0 0.0
2017-Mar-28 12:33N 18°26' W 064°45'0 0.0
2017-Mar-28 11:33N 18°26' W 064°45'0 0.1
2017-Mar-28 10:33N 18°26' W 064°45'1010.3
2017-Mar-28 09:33N 18°31' W 064°35'1413.8
2017-Mar-28 08:33N 18°32' W 064°21'153 5.5
2017-Mar-27 04:33N 16°59' W 062°14'1111.4
2017-Mar-27 03:33N 16°49' W 062°07'1017.6
2017-Mar-27 03:00N 16°42' W 062°00'2 4.9 110 / 171008.3 5.4 25.4 26.4
2017-Mar-27 02:33N 16°40' W 061°59'10 9.6
2017-Mar-27 01:33N 16°30' W 061°59'9 9.3
2017-Mar-27 00:33N 16°22' W 061°56'2411.0
2017-Mar-26 22:23N 15°59' W 061°47'86 4.5
2017-Mar-26 03:00N 14°36' W 061°24'   120 / 211007.3 5.4 25.4 26.4
2017-Mar-20 15:24N 00°05' W 050°59'1315.2
2017-Mar-20 14:33S 00°05' W 051°07'1212.3
2017-Mar-20 13:33S 00°12' W 051°17'  
Track history (hours):
 
Tides and Currents Weather Stations Pressure Air Temp Water Temp Dewpoint Dewpoint Depression Visibility Wind Speed Wind Dir Waves Ship Positions

Seabourn Quest

Last reported at 2017-Mar-28 18:34 UTC. Time now 2017-Mar-30 22:52 UTC.
Position N 18°30' W 064°49'.

Length 198 m.

Type: Ship. MMSI: 311038900.

Date/timePositionNaut miles runAvg speedWind from/ knotsBaromVisibWave heightAir tempDewpointWater temp
2017-Mar-28 18:34N 18°30' W 064°49'5 2.1
2017-Mar-28 16:05N 18°26' W 064°45'3 3.1
2017-Mar-28 15:00N 18°24' W 064°42'3 2.3 170 / 51008.310.8 28.6 26.7
2017-Mar-28 13:29N 18°26' W 064°45'0 0.0
2017-Mar-28 12:33N 18°26' W 064°45'0 0.0
2017-Mar-28 11:33N 18°26' W 064°45'0 0.1
2017-Mar-28 10:33N 18°26' W 064°45'1010.3
2017-Mar-28 09:33N 18°31' W 064°35'1413.8
2017-Mar-28 08:33N 18°32' W 064°21'153 5.5
2017-Mar-27 04:33N 16°59' W 062°14'1111.4
2017-Mar-27 03:33N 16°49' W 062°07'1017.6
2017-Mar-27 03:00N 16°42' W 062°00'2 4.9 110 / 171008.3 5.4 25.4 26.4
2017-Mar-27 02:33N 16°40' W 061°59'10 9.6
2017-Mar-27 01:33N 16°30' W 061°59'9 9.3
2017-Mar-27 00:33N 16°22' W 061°56'2411.0
2017-Mar-26 22:23N 15°59' W 061°47'86 4.5
2017-Mar-26 03:00N 14°36' W 061°24'   120 / 211007.3 5.4 25.4 26.4
2017-Mar-20 15:24N 00°05' W 050°59'1315.2
2017-Mar-20 14:33S 00°05' W 051°07'1212.3
2017-Mar-20 13:33S 00°12' W 051°17'  

Dump ship's entire track history